sensor_id;sensor_type;location;lat;lon;timestamp;pressure;altitude;pressure_sealevel;temperature;humidity
38780;BME280;29273;49.962;9.768;2023-06-19T00:00:10;99297.78;;;26.17;34.10
38780;BME280;29273;49.962;9.768;2023-06-19T00:02:42;99292.69;;;26.16;33.51
38780;BME280;29273;49.962;9.768;2023-06-19T00:05:09;99296.22;;;26.16;33.85
38780;BME280;29273;49.962;9.768;2023-06-19T00:07:38;99294.75;;;26.19;33.72
38780;BME280;29273;49.962;9.768;2023-06-19T00:10:04;99292.06;;;26.10;34.10
38780;BME280;29273;49.962;9.768;2023-06-19T00:12:30;99295.72;;;26.06;34.32
38780;BME280;29273;49.962;9.768;2023-06-19T00:14:55;99296.66;;;26.01;34.24
38780;BME280;29273;49.962;9.768;2023-06-19T00:17:21;99291.84;;;25.98;35.15
38780;BME280;29273;49.962;9.768;2023-06-19T00:19:46;99298.22;;;25.93;34.98
38780;BME280;29273;49.962;9.768;2023-06-19T00:22:14;99292.28;;;25.91;34.88
38780;BME280;29273;49.962;9.768;2023-06-19T00:24:40;99299.47;;;25.87;34.85
38780;BME280;29273;49.962;9.768;2023-06-19T00:27:06;99293.06;;;25.83;35.38
38780;BME280;29273;49.962;9.768;2023-06-19T00:29:32;99288.78;;;25.82;35.40
38780;BME280;29273;49.962;9.768;2023-06-19T00:31:58;99282.88;;;25.80;35.58
38780;BME280;29273;49.962;9.768;2023-06-19T00:34:24;99279.50;;;25.74;35.99
38780;BME280;29273;49.962;9.768;2023-06-19T00:36:50;99288.78;;;25.73;35.86
38780;BME280;29273;49.962;9.768;2023-06-19T00:39:16;99286.69;;;25.70;36.28
38780;BME280;29273;49.962;9.768;2023-06-19T00:41:43;99284.28;;;25.69;36.27
38780;BME280;29273;49.962;9.768;2023-06-19T00:44:10;99271.19;;;25.62;36.72
38780;BME280;29273;49.962;9.768;2023-06-19T00:46:37;99279.50;;;25.65;35.67
38780;BME280;29273;49.962;9.768;2023-06-19T00:49:06;99276.13;;;25.60;36.33
38780;BME280;29273;49.962;9.768;2023-06-19T00:51:31;99280.75;;;25.59;36.20
38780;BME280;29273;49.962;9.768;2023-06-19T00:53:57;99281.06;;;25.58;35.80
38780;BME280;29273;49.962;9.768;2023-06-19T00:56:22;99274.06;;;25.57;35.96
38780;BME280;29273;49.962;9.768;2023-06-19T00:58:50;99278.34;;;25.58;35.13
38780;BME280;29273;49.962;9.768;2023-06-19T01:01:16;99285.69;;;25.57;35.60
38780;BME280;29273;49.962;9.768;2023-06-19T01:03:42;99285.22;;;25.55;35.36
38780;BME280;29273;49.962;9.768;2023-06-19T01:06:25;99276.44;;;25.58;34.16
38780;BME280;29273;49.962;9.768;2023-06-19T01:08:59;99274.22;;;25.60;33.83
38780;BME280;29273;49.962;9.768;2023-06-19T01:11:32;99273.75;;;25.58;34.05
38780;BME280;29273;49.962;9.768;2023-06-19T01:14:01;99275.16;;;25.56;34.17
38780;BME280;29273;49.962;9.768;2023-06-19T01:16:30;99265.91;;;25.57;33.99
38780;BME280;29273;49.962;9.768;2023-06-19T01:18:55;99271.19;;;25.53;33.88
38780;BME280;29273;49.962;9.768;2023-06-19T01:21:21;99276.59;;;25.53;34.26
38780;BME280;29273;49.962;9.768;2023-06-19T01:23:47;99270.66;;;25.51;34.13
38780;BME280;29273;49.962;9.768;2023-06-19T01:26:13;99267.16;;;25.51;33.97
38780;BME280;29273;49.962;9.768;2023-06-19T01:28:40;99266.06;;;25.52;34.04
38780;BME280;29273;49.962;9.768;2023-06-19T01:31:21;99277.69;;;25.52;33.31
38780;BME280;29273;49.962;9.768;2023-06-19T01:33:51;99258.06;;;25.46;33.53
38780;BME280;29273;49.962;9.768;2023-06-19T01:36:19;99270.97;;;25.41;34.41
38780;BME280;29273;49.962;9.768;2023-06-19T01:38:47;99267.47;;;25.40;33.80
38780;BME280;29273;49.962;9.768;2023-06-19T01:41:14;99264.72;;;25.32;34.89
38780;BME280;29273;49.962;9.768;2023-06-19T01:43:42;99266.72;;;25.26;34.88
38780;BME280;29273;49.962;9.768;2023-06-19T01:46:08;99267.66;;;25.21;34.86
38780;BME280;29273;49.962;9.768;2023-06-19T01:48:38;99260.34;;;25.22;33.96
38780;BME280;29273;49.962;9.768;2023-06-19T01:51:06;99266.84;;;25.12;35.09
38780;BME280;29273;49.962;9.768;2023-06-19T01:53:32;99260.13;;;25.09;35.95
38780;BME280;29273;49.962;9.768;2023-06-19T01:55:58;99259.16;;;25.05;35.32
38780;BME280;29273;49.962;9.768;2023-06-19T01:58:24;99264.22;;;24.98;35.65
38780;BME280;29273;49.962;9.768;2023-06-19T02:00:50;99263.22;;;24.94;36.05
38780;BME280;29273;49.962;9.768;2023-06-19T02:03:15;99259.56;;;24.90;36.15
38780;BME280;29273;49.962;9.768;2023-06-19T02:05:42;99261.28;;;24.86;36.01
38780;BME280;29273;49.962;9.768;2023-06-19T02:08:08;99261.41;;;24.81;36.16
38780;BME280;29273;49.962;9.768;2023-06-19T02:10:35;99266.66;;;24.77;36.21
38780;BME280;29273;49.962;9.768;2023-06-19T02:13:02;99268.06;;;24.74;36.29
38780;BME280;29273;49.962;9.768;2023-06-19T02:15:27;99268.19;;;24.69;36.19
38780;BME280;29273;49.962;9.768;2023-06-19T02:17:55;99266.28;;;24.70;35.63
38780;BME280;29273;49.962;9.768;2023-06-19T02:20:22;99263.19;;;24.63;36.42
38780;BME280;29273;49.962;9.768;2023-06-19T02:22:47;99254.13;;;24.59;36.64
38780;BME280;29273;49.962;9.768;2023-06-19T02:25:13;99260.13;;;24.55;36.37
38780;BME280;29273;49.962;9.768;2023-06-19T02:27:42;99257.22;;;24.52;35.68
38780;BME280;29273;49.962;9.768;2023-06-19T02:30:08;99261.63;;;24.48;35.84
38780;BME280;29273;49.962;9.768;2023-06-19T02:32:33;99271.19;;;24.45;35.67
38780;BME280;29273;49.962;9.768;2023-06-19T02:35:01;99272.59;;;24.43;35.30
38780;BME280;29273;49.962;9.768;2023-06-19T02:37:26;99279.72;;;24.38;35.79
38780;BME280;29273;49.962;9.768;2023-06-19T02:39:52;99286.06;;;24.34;36.10
38780;BME280;29273;49.962;9.768;2023-06-19T02:42:17;99283.47;;;24.29;35.71
38780;BME280;29273;49.962;9.768;2023-06-19T02:44:43;99288.69;;;24.25;35.79
38780;BME280;29273;49.962;9.768;2023-06-19T02:47:08;99282.59;;;24.19;35.90
38780;BME280;29273;49.962;9.768;2023-06-19T02:49:34;99286.22;;;24.15;35.68
38780;BME280;29273;49.962;9.768;2023-06-19T02:51:59;99289.00;;;24.10;35.60
38780;BME280;29273;49.962;9.768;2023-06-19T02:54:25;99291.03;;;24.04;35.35
38780;BME280;29273;49.962;9.768;2023-06-19T02:56:51;99298.47;;;23.98;35.67
38780;BME280;29273;49.962;9.768;2023-06-19T02:59:17;99291.56;;;23.92;35.92
38780;BME280;29273;49.962;9.768;2023-06-19T03:01:43;99297.28;;;23.91;36.26
38780;BME280;29273;49.962;9.768;2023-06-19T03:04:11;99289.28;;;23.86;36.79
38780;BME280;29273;49.962;9.768;2023-06-19T03:06:38;99295.28;;;23.82;36.90
38780;BME280;29273;49.962;9.768;2023-06-19T03:09:06;99292.84;;;23.81;37.21
38780;BME280;29273;49.962;9.768;2023-06-19T03:11:40;99295.19;;;23.60;35.19
38780;BME280;29273;49.962;9.768;2023-06-19T03:14:06;99303.09;;;23.70;37.34
38780;BME280;29273;49.962;9.768;2023-06-19T03:16:34;99296.84;;;23.70;37.22
38780;BME280;29273;49.962;9.768;2023-06-19T03:19:00;99305.06;;;23.64;38.05
38780;BME280;29273;49.962;9.768;2023-06-19T03:21:26;99299.97;;;23.63;38.38
38780;BME280;29273;49.962;9.768;2023-06-19T03:23:52;99305.66;;;23.61;38.19
38780;BME280;29273;49.962;9.768;2023-06-19T03:26:20;99311.41;;;23.60;38.48
38780;BME280;29273;49.962;9.768;2023-06-19T03:28:46;99314.41;;;23.58;38.73
38780;BME280;29273;49.962;9.768;2023-06-19T03:31:13;99326.78;;;23.59;38.94
38780;BME280;29273;49.962;9.768;2023-06-19T03:33:39;99330.31;;;23.60;38.90
38780;BME280;29273;49.962;9.768;2023-06-19T03:36:05;99332.19;;;23.59;39.35
38780;BME280;29273;49.962;9.768;2023-06-19T03:38:43;99335.41;;;23.61;39.35
38780;BME280;29273;49.962;9.768;2023-06-19T03:41:10;99332.69;;;23.61;39.66
38780;BME280;29273;49.962;9.768;2023-06-19T03:43:36;99337.00;;;23.62;40.37
38780;BME280;29273;49.962;9.768;2023-06-19T03:46:02;99338.63;;;23.63;39.98
38780;BME280;29273;49.962;9.768;2023-06-19T03:48:29;99342.41;;;23.62;39.99
38780;BME280;29273;49.962;9.768;2023-06-19T03:50:54;99344.03;;;23.63;39.85
38780;BME280;29273;49.962;9.768;2023-06-19T03:53:21;99344.03;;;23.63;39.67
38780;BME280;29273;49.962;9.768;2023-06-19T03:55:46;99336.50;;;23.60;39.67
38780;BME280;29273;49.962;9.768;2023-06-19T03:58:12;99349.13;;;23.65;39.73
38780;BME280;29273;49.962;9.768;2023-06-19T04:00:38;99357.75;;;23.67;39.84
38780;BME280;29273;49.962;9.768;2023-06-19T04:03:03;99357.75;;;23.67;39.71
38780;BME280;29273;49.962;9.768;2023-06-19T04:05:29;99358.25;;;23.69;39.61
38780;BME280;29273;49.962;9.768;2023-06-19T04:07:54;99361.44;;;23.71;39.86
38780;BME280;29273;49.962;9.768;2023-06-19T04:10:20;99364.97;;;23.72;40.37
38780;BME280;29273;49.962;9.768;2023-06-19T04:12:47;99355.13;;;23.76;39.68
38780;BME280;29273;49.962;9.768;2023-06-19T04:15:13;99362.75;;;23.74;39.92
38780;BME280;29273;49.962;9.768;2023-06-19T04:17:38;99358.97;;;23.75;39.08
38780;BME280;29273;49.962;9.768;2023-06-19T04:20:04;99366.75;;;23.76;38.61
38780;BME280;29273;49.962;9.768;2023-06-19T04:22:40;99363.66;;;23.83;38.12
38780;BME280;29273;49.962;9.768;2023-06-19T04:25:06;99372.38;;;23.80;38.23
38780;BME280;29273;49.962;9.768;2023-06-19T04:27:33;99374.25;;;23.79;38.42
38780;BME280;29273;49.962;9.768;2023-06-19T04:29:58;99378.56;;;23.80;38.54
38780;BME280;29273;49.962;9.768;2023-06-19T04:32:24;99387.22;;;23.82;38.59
38780;BME280;29273;49.962;9.768;2023-06-19T04:34:49;99385.31;;;23.83;39.03
38780;BME280;29273;49.962;9.768;2023-06-19T04:37:15;99388.81;;;23.83;38.65
38780;BME280;29273;49.962;9.768;2023-06-19T04:39:47;99388.13;;;23.92;38.01
38780;BME280;29273;49.962;9.768;2023-06-19T04:42:13;99394.13;;;23.89;38.99
38780;BME280;29273;49.962;9.768;2023-06-19T04:44:47;99394.31;;;23.92;38.37
38780;BME280;29273;49.962;9.768;2023-06-19T04:47:14;99395.72;;;23.90;38.47
38780;BME280;29273;49.962;9.768;2023-06-19T04:49:39;99397.63;;;23.89;38.53
38780;BME280;29273;49.962;9.768;2023-06-19T04:52:05;99403.03;;;23.89;38.27
38780;BME280;29273;49.962;9.768;2023-06-19T04:54:30;99390.63;;;23.88;38.17
38780;BME280;29273;49.962;9.768;2023-06-19T04:56:58;99400.63;;;23.88;38.41
38780;BME280;29273;49.962;9.768;2023-06-19T04:59:24;99406.34;;;23.86;38.44
38780;BME280;29273;49.962;9.768;2023-06-19T05:01:49;99401.22;;;23.85;38.55
38780;BME280;29273;49.962;9.768;2023-06-19T05:04:19;99403.13;;;23.84;38.59
38780;BME280;29273;49.962;9.768;2023-06-19T05:06:44;99415.03;;;23.83;38.76
38780;BME280;29273;49.962;9.768;2023-06-19T05:09:10;99415.34;;;23.81;39.27
38780;BME280;29273;49.962;9.768;2023-06-19T05:11:36;99411.53;;;23.82;39.49
38780;BME280;29273;49.962;9.768;2023-06-19T05:14:02;99417.22;;;23.81;39.57
38780;BME280;29273;49.962;9.768;2023-06-19T05:16:28;99418.03;;;23.81;39.46
38780;BME280;29273;49.962;9.768;2023-06-19T05:18:53;99426.44;;;23.80;39.89
38780;BME280;29273;49.962;9.768;2023-06-19T05:21:19;99418.34;;;23.80;39.15
38780;BME280;29273;49.962;9.768;2023-06-19T05:23:44;99430.75;;;23.81;39.46
38780;BME280;29273;49.962;9.768;2023-06-19T05:26:12;99437.78;;;23.82;39.49
38780;BME280;29273;49.962;9.768;2023-06-19T05:28:39;99441.00;;;23.84;39.66
38780;BME280;29273;49.962;9.768;2023-06-19T05:31:04;99448.31;;;23.83;39.68
38780;BME280;29273;49.962;9.768;2023-06-19T05:33:30;99454.22;;;23.86;39.43
38780;BME280;29273;49.962;9.768;2023-06-19T05:35:55;99447.72;;;23.87;39.44
38780;BME280;29273;49.962;9.768;2023-06-19T05:38:21;99452.84;;;23.88;39.67
38780;BME280;29273;49.962;9.768;2023-06-19T05:40:50;99450.81;;;23.94;39.64
38780;BME280;29273;49.962;9.768;2023-06-19T05:43:15;99448.13;;;23.94;39.82
38780;BME280;29273;49.962;9.768;2023-06-19T05:45:41;99440.50;;;23.96;39.54
38780;BME280;29273;49.962;9.768;2023-06-19T05:48:06;99446.63;;;24.01;39.78
38780;BME280;29273;49.962;9.768;2023-06-19T05:50:32;99447.63;;;24.06;39.83
38780;BME280;29273;49.962;9.768;2023-06-19T05:52:57;99455.63;;;24.11;39.81
38780;BME280;29273;49.962;9.768;2023-06-19T05:55:23;99456.66;;;24.15;39.87
38780;BME280;29273;49.962;9.768;2023-06-19T05:57:50;99454.34;;;24.22;40.12
38780;BME280;29273;49.962;9.768;2023-06-19T06:00:16;99461.25;;;24.28;39.87
38780;BME280;29273;49.962;9.768;2023-06-19T06:02:42;99474.38;;;24.35;40.41
38780;BME280;29273;49.962;9.768;2023-06-19T06:05:08;99469.34;;;24.42;39.78
38780;BME280;29273;49.962;9.768;2023-06-19T06:07:34;99473.56;;;24.48;38.98
38780;BME280;29273;49.962;9.768;2023-06-19T06:10:00;99473.19;;;24.55;38.95
38780;BME280;29273;49.962;9.768;2023-06-19T06:12:25;99472.78;;;24.62;38.32
38780;BME280;29273;49.962;9.768;2023-06-19T06:14:51;99483.19;;;24.68;38.43
38780;BME280;29273;49.962;9.768;2023-06-19T06:17:16;99473.03;;;24.74;38.41
38780;BME280;29273;49.962;9.768;2023-06-19T06:19:42;99484.56;;;24.80;38.71
38780;BME280;29273;49.962;9.768;2023-06-19T06:22:07;99478.72;;;24.86;38.88
38780;BME280;29273;49.962;9.768;2023-06-19T06:24:33;99477.50;;;24.92;38.41
38780;BME280;29273;49.962;9.768;2023-06-19T06:26:58;99479.81;;;24.99;38.72
38780;BME280;29273;49.962;9.768;2023-06-19T06:29:24;99478.88;;;25.04;38.46
38780;BME280;29273;49.962;9.768;2023-06-19T06:31:50;99486.59;;;25.10;38.12
38780;BME280;29273;49.962;9.768;2023-06-19T06:34:18;99476.72;;;25.15;38.25
38780;BME280;29273;49.962;9.768;2023-06-19T06:36:45;99477.72;;;25.19;38.48
38780;BME280;29273;49.962;9.768;2023-06-19T06:39:10;99485.75;;;25.24;38.10
38780;BME280;29273;49.962;9.768;2023-06-19T06:41:36;99486.75;;;25.28;38.60
38780;BME280;29273;49.962;9.768;2023-06-19T06:44:04;99492.88;;;25.34;37.94
38780;BME280;29273;49.962;9.768;2023-06-19T06:46:30;99491.94;;;25.38;38.48
38780;BME280;29273;49.962;9.768;2023-06-19T06:48:56;99495.63;;;25.42;38.73
38780;BME280;29273;49.962;9.768;2023-06-19T06:51:21;99494.41;;;25.48;38.85
38780;BME280;29273;49.962;9.768;2023-06-19T06:53:47;99490.47;;;25.55;38.77
38780;BME280;29273;49.962;9.768;2023-06-19T06:56:13;99490.66;;;25.58;38.66
38780;BME280;29273;49.962;9.768;2023-06-19T06:58:38;99493.22;;;25.63;38.52
38780;BME280;29273;49.962;9.768;2023-06-19T07:01:04;99495.81;;;25.69;38.78
38780;BME280;29273;49.962;9.768;2023-06-19T07:03:29;99494.88;;;25.73;39.06
38780;BME280;29273;49.962;9.768;2023-06-19T07:05:57;99500.97;;;25.79;38.94
38780;BME280;29273;49.962;9.768;2023-06-19T07:08:22;99496.84;;;25.81;39.79
38780;BME280;29273;49.962;9.768;2023-06-19T07:10:48;99496.72;;;25.87;39.32
38780;BME280;29273;49.962;9.768;2023-06-19T07:13:14;99495.28;;;25.89;39.49
38780;BME280;29273;49.962;9.768;2023-06-19T07:15:39;99493.84;;;25.92;39.96
38780;BME280;29273;49.962;9.768;2023-06-19T07:18:05;99488.91;;;25.94;39.96
38780;BME280;29273;49.962;9.768;2023-06-19T07:20:30;99493.75;;;25.97;40.57
38780;BME280;29273;49.962;9.768;2023-06-19T07:22:56;99487.19;;;25.98;40.47
38780;BME280;29273;49.962;9.768;2023-06-19T07:25:22;99496.63;;;26.00;40.41
38780;BME280;29273;49.962;9.768;2023-06-19T07:27:50;99493.91;;;26.00;40.23
38780;BME280;29273;49.962;9.768;2023-06-19T07:30:16;99499.34;;;26.00;40.24
38780;BME280;29273;49.962;9.768;2023-06-19T07:32:41;99499.03;;;26.02;40.32
38780;BME280;29273;49.962;9.768;2023-06-19T07:35:07;99501.75;;;26.02;40.18
38780;BME280;29273;49.962;9.768;2023-06-19T07:37:33;99506.06;;;26.03;40.41
38780;BME280;29273;49.962;9.768;2023-06-19T07:39:58;99499.22;;;26.06;40.26
38780;BME280;29273;49.962;9.768;2023-06-19T07:42:24;99491.53;;;26.08;40.71
38780;BME280;29273;49.962;9.768;2023-06-19T07:44:49;99486.63;;;26.10;40.65
38780;BME280;29273;49.962;9.768;2023-06-19T07:47:16;99469.38;;;26.14;39.85
38780;BME280;29273;49.962;9.768;2023-06-19T07:49:43;99465.56;;;26.15;40.44
38780;BME280;29273;49.962;9.768;2023-06-19T07:52:08;99465.25;;;26.17;40.55
38780;BME280;29273;49.962;9.768;2023-06-19T07:54:56;99470.41;;;26.27;39.75
38780;BME280;29273;49.962;9.768;2023-06-19T07:57:23;99470.72;;;26.26;40.17
38780;BME280;29273;49.962;9.768;2023-06-19T07:59:49;99477.44;;;26.28;40.23
38780;BME280;29273;49.962;9.768;2023-06-19T08:02:15;99474.09;;;26.31;40.33
38780;BME280;29273;49.962;9.768;2023-06-19T08:04:41;99481.28;;;26.36;40.53
38780;BME280;29273;49.962;9.768;2023-06-19T08:07:06;99476.81;;;26.40;40.64
38780;BME280;29273;49.962;9.768;2023-06-19T08:09:32;99484.81;;;26.45;41.13
38780;BME280;29273;49.962;9.768;2023-06-19T08:11:58;99489.31;;;26.50;40.68
38780;BME280;29273;49.962;9.768;2023-06-19T08:14:23;99478.31;;;26.55;41.15
38780;BME280;29273;49.962;9.768;2023-06-19T08:16:49;99478.16;;;26.60;40.72
38780;BME280;29273;49.962;9.768;2023-06-19T08:19:14;99471.47;;;26.66;40.64
38780;BME280;29273;49.962;9.768;2023-06-19T08:21:40;99483.78;;;26.72;40.75
38780;BME280;29273;49.962;9.768;2023-06-19T08:24:06;99483.78;;;26.81;40.41
38780;BME280;29273;49.962;9.768;2023-06-19T08:26:31;99483.81;;;26.90;40.67
38780;BME280;29273;49.962;9.768;2023-06-19T08:28:56;99488.78;;;26.97;40.04
38780;BME280;29273;49.962;9.768;2023-06-19T08:31:22;99488.75;;;27.05;40.34
38780;BME280;29273;49.962;9.768;2023-06-19T08:33:55;99485.88;;;27.19;39.63
38780;BME280;29273;49.962;9.768;2023-06-19T08:36:23;99499.47;;;27.19;40.29
38780;BME280;29273;49.962;9.768;2023-06-19T08:38:48;99504.41;;;27.26;39.66
38780;BME280;29273;49.962;9.768;2023-06-19T08:41:16;99495.81;;;27.32;39.61
38780;BME280;29273;49.962;9.768;2023-06-19T08:43:41;99494.84;;;27.37;39.17
38780;BME280;29273;49.962;9.768;2023-06-19T08:48:37;99504.59;;;27.47;39.29
38780;BME280;29273;49.962;9.768;2023-06-19T08:51:03;99507.16;;;27.52;39.51
38780;BME280;29273;49.962;9.768;2023-06-19T08:53:37;99513.84;;;27.63;38.92
38780;BME280;29273;49.962;9.768;2023-06-19T08:56:08;99518.31;;;27.59;39.30
38780;BME280;29273;49.962;9.768;2023-06-19T08:58:34;99506.50;;;27.64;39.63
38780;BME280;29273;49.962;9.768;2023-06-19T09:00:59;99516.41;;;27.68;39.67
38780;BME280;29273;49.962;9.768;2023-06-19T09:03:25;99507.75;;;27.75;39.38
38780;BME280;29273;49.962;9.768;2023-06-19T09:05:50;99511.91;;;27.81;39.37
38780;BME280;29273;49.962;9.768;2023-06-19T09:08:20;99509.00;;;27.95;39.38
38780;BME280;29273;49.962;9.768;2023-06-19T09:11:01;99510.09;;;28.03;39.35
38780;BME280;29273;49.962;9.768;2023-06-19T09:13:28;99509.44;;;28.06;39.69
38780;BME280;29273;49.962;9.768;2023-06-19T09:16:05;99518.19;;;28.20;39.05
38780;BME280;29273;49.962;9.768;2023-06-19T09:18:42;99520.53;;;28.31;38.82
38780;BME280;29273;49.962;9.768;2023-06-19T09:21:20;99518.13;;;28.38;38.83
38780;BME280;29273;49.962;9.768;2023-06-19T09:23:47;99511.84;;;28.37;38.77
38780;BME280;29273;49.962;9.768;2023-06-19T09:26:15;99518.41;;;28.45;38.63
38780;BME280;29273;49.962;9.768;2023-06-19T09:28:41;99514.38;;;28.51;38.57
38780;BME280;29273;49.962;9.768;2023-06-19T09:31:10;99513.06;;;28.57;38.88
38780;BME280;29273;49.962;9.768;2023-06-19T09:33:37;99503.91;;;28.62;38.36
38780;BME280;29273;49.962;9.768;2023-06-19T09:36:04;99504.50;;;28.68;38.34
38780;BME280;29273;49.962;9.768;2023-06-19T09:38:36;99506.03;;;28.77;38.18
38780;BME280;29273;49.962;9.768;2023-06-19T09:41:05;99511.81;;;28.76;38.33
38780;BME280;29273;49.962;9.768;2023-06-19T09:43:36;99510.31;;;28.87;38.16
38780;BME280;29273;49.962;9.768;2023-06-19T09:46:03;99519.97;;;28.85;37.95
38780;BME280;29273;49.962;9.768;2023-06-19T09:48:34;99505.94;;;28.95;38.11
38780;BME280;29273;49.962;9.768;2023-06-19T09:51:22;99509.91;;;28.97;37.87
38780;BME280;29273;49.962;9.768;2023-06-19T09:53:52;99508.66;;;28.95;37.66
38780;BME280;29273;49.962;9.768;2023-06-19T09:56:18;99513.56;;;29.02;37.50
38780;BME280;29273;49.962;9.768;2023-06-19T09:58:48;99526.69;;;29.08;37.55
38780;BME280;29273;49.962;9.768;2023-06-19T10:01:16;99519.75;;;29.11;37.32
38780;BME280;29273;49.962;9.768;2023-06-19T10:03:45;99515.91;;;29.12;37.39
38780;BME280;29273;49.962;9.768;2023-06-19T10:06:15;99518.56;;;29.21;37.77
38780;BME280;29273;49.962;9.768;2023-06-19T10:08:42;99518.44;;;29.17;37.57
38780;BME280;29273;49.962;9.768;2023-06-19T10:11:12;99518.56;;;29.21;37.75
38780;BME280;29273;49.962;9.768;2023-06-19T10:13:40;99518.03;;;29.27;37.47
38780;BME280;29273;49.962;9.768;2023-06-19T10:16:08;99522.84;;;29.30;37.51
38780;BME280;29273;49.962;9.768;2023-06-19T10:18:46;99524.09;;;29.33;37.50
38780;BME280;29273;49.962;9.768;2023-06-19T10:21:21;99532.88;;;29.39;37.28
38780;BME280;29273;49.962;9.768;2023-06-19T10:23:55;99531.88;;;29.43;37.46
38780;BME280;29273;49.962;9.768;2023-06-19T10:26:37;99531.66;;;29.48;37.36
38780;BME280;29273;49.962;9.768;2023-06-19T10:29:16;99527.59;;;29.55;37.43
38780;BME280;29273;49.962;9.768;2023-06-19T10:31:43;99530.31;;;29.55;37.15
38780;BME280;29273;49.962;9.768;2023-06-19T10:34:10;99528.19;;;29.60;36.65
38780;BME280;29273;49.962;9.768;2023-06-19T10:36:35;99526.84;;;29.66;36.40
38780;BME280;29273;49.962;9.768;2023-06-19T10:39:00;99513.75;;;29.72;36.78
38780;BME280;29273;49.962;9.768;2023-06-19T10:41:26;99520.16;;;29.76;36.68
38780;BME280;29273;49.962;9.768;2023-06-19T10:43:55;99513.34;;;29.82;36.55
38780;BME280;29273;49.962;9.768;2023-06-19T10:46:21;99519.31;;;29.84;36.43
38780;BME280;29273;49.962;9.768;2023-06-19T10:48:48;99512.34;;;29.87;36.27
38780;BME280;29273;49.962;9.768;2023-06-19T10:51:18;99511.56;;;29.99;36.19
38780;BME280;29273;49.962;9.768;2023-06-19T10:53:43;99513.84;;;29.97;36.59
38780;BME280;29273;49.962;9.768;2023-06-19T10:56:09;99502.59;;;29.98;36.18
38780;BME280;29273;49.962;9.768;2023-06-19T10:58:34;99501.91;;;30.01;36.18
38780;BME280;29273;49.962;9.768;2023-06-19T11:01:00;99505.53;;;30.05;36.46
38780;BME280;29273;49.962;9.768;2023-06-19T11:03:26;99506.00;;;30.07;36.15
38780;BME280;29273;49.962;9.768;2023-06-19T11:05:52;99498.41;;;30.13;36.36
38780;BME280;29273;49.962;9.768;2023-06-19T11:08:19;99503.19;;;30.16;35.80
38780;BME280;29273;49.962;9.768;2023-06-19T11:10:44;99499.75;;;30.19;35.60
38780;BME280;29273;49.962;9.768;2023-06-19T11:13:17;99510.25;;;30.30;36.01
38780;BME280;29273;49.962;9.768;2023-06-19T11:15:43;99505.13;;;30.28;35.72
38780;BME280;29273;49.962;9.768;2023-06-19T11:18:09;99509.41;;;30.29;35.62
38780;BME280;29273;49.962;9.768;2023-06-19T11:20:49;99502.75;;;30.39;35.37
38780;BME280;29273;49.962;9.768;2023-06-19T11:23:15;99500.56;;;30.32;35.79
38780;BME280;29273;49.962;9.768;2023-06-19T11:25:42;99497.47;;;30.34;35.89
38780;BME280;29273;49.962;9.768;2023-06-19T11:28:15;99502.41;;;30.40;35.64
38780;BME280;29273;49.962;9.768;2023-06-19T11:30:43;99500.22;;;30.34;35.72
38780;BME280;29273;49.962;9.768;2023-06-19T11:33:19;99503.56;;;30.39;35.52
38780;BME280;29273;49.962;9.768;2023-06-19T11:35:52;99505.47;;;30.39;35.51
38780;BME280;29273;49.962;9.768;2023-06-19T11:38:22;99498.78;;;30.36;35.80
38780;BME280;29273;49.962;9.768;2023-06-19T11:40:49;99500.34;;;30.37;35.27
38780;BME280;29273;49.962;9.768;2023-06-19T11:43:28;99503.31;;;30.44;35.50
38780;BME280;29273;49.962;9.768;2023-06-19T11:46:04;99492.50;;;30.48;35.57
38780;BME280;29273;49.962;9.768;2023-06-19T11:48:31;99491.69;;;30.48;35.42
38780;BME280;29273;49.962;9.768;2023-06-19T11:50:57;99494.22;;;30.53;35.89
38780;BME280;29273;49.962;9.768;2023-06-19T11:53:23;99496.38;;;30.59;35.57
38780;BME280;29273;49.962;9.768;2023-06-19T11:55:50;99495.31;;;30.64;35.14
38780;BME280;29273;49.962;9.768;2023-06-19T11:58:16;99489.59;;;30.69;35.31
38780;BME280;29273;49.962;9.768;2023-06-19T12:00:42;99492.47;;;30.73;35.18
38780;BME280;29273;49.962;9.768;2023-06-19T12:03:08;99484.72;;;30.75;35.16
38780;BME280;29273;49.962;9.768;2023-06-19T12:05:35;99487.53;;;30.78;35.18
38780;BME280;29273;49.962;9.768;2023-06-19T12:08:01;99479.00;;;30.80;35.34
38780;BME280;29273;49.962;9.768;2023-06-19T12:10:28;99475.94;;;30.81;35.36
38780;BME280;29273;49.962;9.768;2023-06-19T12:12:54;99479.88;;;30.84;35.49
38780;BME280;29273;49.962;9.768;2023-06-19T12:15:19;99467.47;;;30.87;35.54
38780;BME280;29273;49.962;9.768;2023-06-19T12:17:45;99475.09;;;30.93;35.77
38780;BME280;29273;49.962;9.768;2023-06-19T12:20:12;99467.38;;;30.95;35.59
38780;BME280;29273;49.962;9.768;2023-06-19T12:22:39;99469.06;;;31.00;35.22
38780;BME280;29273;49.962;9.768;2023-06-19T12:25:05;99468.72;;;31.02;35.24
38780;BME280;29273;49.962;9.768;2023-06-19T12:27:30;99467.22;;;31.04;34.92
38780;BME280;29273;49.962;9.768;2023-06-19T12:29:56;99470.06;;;31.08;35.01
38780;BME280;29273;49.962;9.768;2023-06-19T12:32:21;99470.16;;;31.11;34.79
38780;BME280;29273;49.962;9.768;2023-06-19T12:34:47;99467.09;;;31.13;34.44
38780;BME280;29273;49.962;9.768;2023-06-19T12:37:16;99475.13;;;31.22;34.79
38780;BME280;29273;49.962;9.768;2023-06-19T12:39:44;99465.22;;;31.17;34.55
38780;BME280;29273;49.962;9.768;2023-06-19T12:42:10;99465.66;;;31.19;34.56
38780;BME280;29273;49.962;9.768;2023-06-19T12:44:42;99464.38;;;31.29;34.64
38780;BME280;29273;49.962;9.768;2023-06-19T12:47:10;99465.06;;;31.26;34.82
38780;BME280;29273;49.962;9.768;2023-06-19T12:49:35;99464.03;;;31.30;34.71
38780;BME280;29273;49.962;9.768;2023-06-19T12:52:01;99459.47;;;31.34;34.36
38780;BME280;29273;49.962;9.768;2023-06-19T12:54:27;99463.06;;;31.39;34.61
38780;BME280;29273;49.962;9.768;2023-06-19T12:56:52;99455.78;;;31.43;34.27
38780;BME280;29273;49.962;9.768;2023-06-19T12:59:18;99453.56;;;31.48;34.27
38780;BME280;29273;49.962;9.768;2023-06-19T13:01:44;99456.06;;;31.53;34.13